createdAt,value
2023-03-19T00:00:52.964Z,100.00
2023-03-19T00:03:20.731Z,100.00
2023-03-19T00:05:53.077Z,100.00
2023-03-19T00:08:21.097Z,100.00
2023-03-19T00:10:48.802Z,100.00
2023-03-19T00:13:16.793Z,100.00
2023-03-19T00:15:44.570Z,100.00
2023-03-19T00:18:13.851Z,100.00
2023-03-19T00:20:41.591Z,100.00
2023-03-19T00:23:09.342Z,100.00
2023-03-19T00:25:37.337Z,100.00
2023-03-19T00:28:05.118Z,100.00
2023-03-19T00:30:32.814Z,100.00
2023-03-19T00:33:01.329Z,100.00
2023-03-19T00:35:30.401Z,100.00
2023-03-19T00:37:58.108Z,100.00
2023-03-19T00:40:26.078Z,100.00
2023-03-19T00:42:54.092Z,100.00
2023-03-19T00:45:21.776Z,100.00
2023-03-19T00:47:49.504Z,100.00
2023-03-19T00:50:17.379Z,100.00
2023-03-19T00:52:46.578Z,100.00
2023-03-19T00:55:14.377Z,100.00
2023-03-19T00:57:42.150Z,100.00
2023-03-19T01:00:11.333Z,100.00
2023-03-19T01:02:39.012Z,100.00
2023-03-19T01:05:08.120Z,100.00
2023-03-19T01:07:35.880Z,100.00
2023-03-19T01:10:06.098Z,100.00
2023-03-19T01:12:34.041Z,100.00
2023-03-19T01:15:01.851Z,100.00
2023-03-19T01:17:29.832Z,100.00
2023-03-19T01:19:57.560Z,100.00
2023-03-19T01:22:25.599Z,100.00
2023-03-19T01:24:53.433Z,100.00
2023-03-19T01:27:23.010Z,100.00
2023-03-19T01:29:52.157Z,100.00
2023-03-19T01:32:19.842Z,100.00
2023-03-19T01:34:47.787Z,100.00
2023-03-19T01:37:15.529Z,100.00
2023-03-19T01:39:43.202Z,100.00
2023-03-19T01:42:11.097Z,100.00
2023-03-19T01:44:42.043Z,100.00
2023-03-19T01:47:17.336Z,100.00
2023-03-19T01:49:47.847Z,100.00
2023-03-19T01:52:16.987Z,100.00
2023-03-19T01:54:45.380Z,100.00
2023-03-19T01:57:14.953Z,100.00
2023-03-19T01:59:45.748Z,100.00
2023-03-19T02:02:17.752Z,100.00
2023-03-19T02:04:46.912Z,100.00
2023-03-19T02:07:15.764Z,100.00
2023-03-19T02:09:43.974Z,100.00
2023-03-19T02:12:12.614Z,100.00
2023-03-19T02:14:40.608Z,100.00
2023-03-19T02:17:09.803Z,100.00
2023-03-19T02:19:42.026Z,100.00
2023-03-19T02:22:11.049Z,100.00
2023-03-19T02:24:42.317Z,100.00
2023-03-19T02:27:11.612Z,100.00
2023-03-19T02:29:39.326Z,100.00
2023-03-19T02:32:07.330Z,100.00
2023-03-19T02:34:37.922Z,100.00
2023-03-19T02:37:10.652Z,100.00
2023-03-19T02:39:43.661Z,100.00
2023-03-19T02:42:13.772Z,100.00
2023-03-19T02:44:41.439Z,100.00
2023-03-19T02:47:09.282Z,100.00
2023-03-19T02:49:37.215Z,100.00
2023-03-19T02:52:05.641Z,100.00
2023-03-19T02:54:33.402Z,100.00
2023-03-19T02:57:01.070Z,100.00
2023-03-19T02:59:30.496Z,100.00
2023-03-19T03:01:58.364Z,100.00
2023-03-19T03:04:26.758Z,100.00
2023-03-19T03:06:54.619Z,100.00
2023-03-19T03:09:22.795Z,100.00
2023-03-19T03:11:51.044Z,100.00
2023-03-19T03:14:18.756Z,100.00
2023-03-19T03:16:47.946Z,100.00
2023-03-19T03:19:15.898Z,100.00
2023-03-19T03:21:43.855Z,100.00
2023-03-19T03:24:12.000Z,100.00
2023-03-19T03:26:39.891Z,100.00
2023-03-19T03:29:08.231Z,100.00
2023-03-19T03:31:35.980Z,100.00
2023-03-19T03:34:05.579Z,100.00
2023-03-19T03:36:33.760Z,100.00
2023-03-19T03:39:01.764Z,100.00
2023-03-19T03:41:29.646Z,100.00
2023-03-19T03:43:57.656Z,100.00
2023-03-19T03:46:25.521Z,100.00
2023-03-19T03:48:53.166Z,100.00
2023-03-19T03:51:22.370Z,100.00
2023-03-19T03:53:50.149Z,100.00
2023-03-19T03:56:17.954Z,100.00
2023-03-19T03:58:46.020Z,100.00
2023-03-19T04:01:15.599Z,100.00
2023-03-19T04:03:43.286Z,100.00
2023-03-19T04:06:11.505Z,100.00
2023-03-19T04:08:40.723Z,100.00
2023-03-19T04:11:09.043Z,100.00
2023-03-19T04:13:37.304Z,100.00
2023-03-19T04:16:05.695Z,100.00
2023-03-19T04:18:33.396Z,100.00
2023-03-19T04:21:01.469Z,100.00
2023-03-19T04:23:29.122Z,100.00
2023-03-19T04:26:01.837Z,100.00
2023-03-19T04:28:29.565Z,100.00
2023-03-19T04:31:00.647Z,100.00
2023-03-19T04:33:28.476Z,100.00
2023-03-19T04:35:56.636Z,100.00
2023-03-19T04:38:26.317Z,100.00
2023-03-19T04:40:54.330Z,100.00
2023-03-19T04:43:23.474Z,100.00
2023-03-19T04:45:51.514Z,100.00
2023-03-19T04:48:19.490Z,100.00
2023-03-19T04:50:47.616Z,100.00
2023-03-19T04:53:15.330Z,100.00
2023-03-19T04:55:42.996Z,100.00
2023-03-19T04:58:11.004Z,100.00
2023-03-19T05:00:40.075Z,100.00
2023-03-19T05:03:07.747Z,100.00
2023-03-19T05:05:35.443Z,100.00
2023-03-19T05:08:03.625Z,100.00
2023-03-19T05:10:32.610Z,100.00
2023-03-19T05:13:00.511Z,100.00
2023-03-19T05:15:28.291Z,100.00
2023-03-19T05:17:57.838Z,100.00
2023-03-19T05:20:25.686Z,100.00
2023-03-19T05:22:53.942Z,100.00
2023-03-19T05:25:21.623Z,100.00
2023-03-19T05:27:49.376Z,100.00
2023-03-19T05:30:18.381Z,100.00
2023-03-19T05:32:46.782Z,100.00
2023-03-19T05:35:16.205Z,100.00
2023-03-19T05:37:43.946Z,100.00
2023-03-19T05:40:13.626Z,100.00
2023-03-19T05:42:41.442Z,100.00
2023-03-19T05:45:09.955Z,100.00
2023-03-19T05:47:37.760Z,100.00
2023-03-19T05:50:06.566Z,100.00
2023-03-19T05:52:35.818Z,100.00
2023-03-19T05:55:04.687Z,100.00
2023-03-19T05:57:32.418Z,100.00
2023-03-19T06:00:00.074Z,100.00
2023-03-19T06:02:27.806Z,100.00
2023-03-19T06:04:55.543Z,100.00
2023-03-19T06:07:23.298Z,100.00
2023-03-19T06:09:52.451Z,100.00
2023-03-19T06:12:20.745Z,100.00
2023-03-19T06:14:48.403Z,100.00
2023-03-19T06:17:16.170Z,100.00
2023-03-19T06:19:44.167Z,100.00
2023-03-19T06:22:12.372Z,100.00
2023-03-19T06:24:40.064Z,100.00
2023-03-19T06:27:09.717Z,100.00
2023-03-19T06:29:37.484Z,100.00
2023-03-19T06:32:05.675Z,100.00
2023-03-19T06:34:33.320Z,100.00
2023-03-19T06:37:01.111Z,100.00
2023-03-19T06:39:29.090Z,100.00
2023-03-19T06:41:57.720Z,100.00
2023-03-19T06:44:27.389Z,100.00
2023-03-19T06:46:55.029Z,100.00
2023-03-19T06:49:23.096Z,100.00
2023-03-19T06:51:50.847Z,100.00
2023-03-19T06:54:18.517Z,100.00
2023-03-19T06:56:46.250Z,100.00
2023-03-19T06:59:14.087Z,100.00
2023-03-19T07:01:43.328Z,100.00
2023-03-19T07:04:11.290Z,100.00
2023-03-19T07:06:39.017Z,100.00
2023-03-19T07:09:06.745Z,100.00
2023-03-19T07:11:35.904Z,100.00
2023-03-19T07:14:03.925Z,100.00
2023-03-19T07:16:31.668Z,100.00
2023-03-19T07:19:03.165Z,100.00
2023-03-19T07:21:31.092Z,100.00
2023-03-19T07:23:58.759Z,100.00
2023-03-19T07:26:26.524Z,100.00
2023-03-19T07:28:54.303Z,100.00
2023-03-19T07:31:22.166Z,100.00
2023-03-19T07:33:49.855Z,100.00
2023-03-19T07:36:18.984Z,100.00
2023-03-19T07:38:46.645Z,100.00
2023-03-19T07:41:14.474Z,100.00
2023-03-19T07:43:42.277Z,100.00
2023-03-19T07:46:09.956Z,100.00
2023-03-19T07:48:37.660Z,100.00
2023-03-19T07:51:05.743Z,100.00
2023-03-19T07:53:34.814Z,100.00
2023-03-19T07:56:02.481Z,100.00
2023-03-19T07:58:30.771Z,100.00
2023-03-19T08:00:58.441Z,100.00
2023-03-19T08:03:26.135Z,100.00
2023-03-19T08:05:53.904Z,100.00
2023-03-19T08:08:21.605Z,100.00
2023-03-19T08:10:50.992Z,100.00
2023-03-19T08:13:18.769Z,100.00
2023-03-19T08:15:46.622Z,100.00
2023-03-19T08:18:14.302Z,100.00
2023-03-19T08:20:41.975Z,100.00
2023-03-19T08:23:09.988Z,100.00
2023-03-19T08:25:37.666Z,100.00
2023-03-19T08:28:07.209Z,100.00
2023-03-19T08:30:45.015Z,100.00
2023-03-19T08:33:12.834Z,100.00
2023-03-19T08:35:40.774Z,100.00
2023-03-19T08:38:08.510Z,100.00
2023-03-19T08:40:36.729Z,100.00
2023-03-19T08:43:06.756Z,100.00
2023-03-19T08:45:34.449Z,100.00
2023-03-19T08:48:02.112Z,100.00
2023-03-19T08:50:29.841Z,100.00
2023-03-19T08:52:57.697Z,100.00
2023-03-19T08:55:25.441Z,100.00
2023-03-19T08:57:53.117Z,100.00
2023-03-19T09:00:23.395Z,100.00
2023-03-19T09:02:51.084Z,100.00
2023-03-19T09:05:22.334Z,100.00
2023-03-19T09:07:51.954Z,100.00
2023-03-19T09:10:19.633Z,100.00
2023-03-19T09:12:48.573Z,100.00
2023-03-19T09:15:17.041Z,100.00
2023-03-19T09:17:46.183Z,100.00
2023-03-19T09:20:14.086Z,100.00
2023-03-19T09:22:41.773Z,100.00
2023-03-19T09:25:10.539Z,100.00
2023-03-19T09:27:38.249Z,100.00
2023-03-19T09:30:09.686Z,100.00
2023-03-19T09:32:37.604Z,100.00
2023-03-19T09:35:07.957Z,100.00
2023-03-19T09:37:36.182Z,100.00
2023-03-19T09:40:05.302Z,100.00
2023-03-19T09:42:54.801Z,100.00
2023-03-19T09:45:22.669Z,100.00
2023-03-19T09:47:53.162Z,100.00
2023-03-19T09:50:24.670Z,100.00
2023-03-19T09:52:56.585Z,100.00
2023-03-19T09:55:34.069Z,100.00
2023-03-19T09:58:02.710Z,100.00
2023-03-19T10:00:33.952Z,100.00
2023-03-19T10:03:05.410Z,100.00
2023-03-19T10:05:42.581Z,100.00
2023-03-19T10:08:25.871Z,100.00
2023-03-19T10:11:04.737Z,100.00
2023-03-19T10:13:43.485Z,100.00
2023-03-19T10:16:15.352Z,100.00
2023-03-19T10:18:46.574Z,100.00
2023-03-19T10:21:20.171Z,100.00
2023-03-19T10:23:49.452Z,100.00
2023-03-19T10:26:19.016Z,100.00
2023-03-19T10:28:50.879Z,100.00
2023-03-19T10:31:27.311Z,100.00
2023-03-19T10:34:03.234Z,100.00
2023-03-19T10:36:35.627Z,100.00
2023-03-19T10:39:07.893Z,100.00
2023-03-19T10:41:43.875Z,100.00
2023-03-19T10:44:17.406Z,100.00
2023-03-19T10:46:45.081Z,100.00
2023-03-19T10:49:13.435Z,100.00
2023-03-19T10:51:44.866Z,100.00
2023-03-19T10:54:23.375Z,100.00
2023-03-19T10:56:52.001Z,100.00
2023-03-19T10:59:25.410Z,100.00
2023-03-19T11:01:57.778Z,99.90
2023-03-19T11:04:27.947Z,100.00
2023-03-19T11:06:58.285Z,99.51
2023-03-19T11:09:33.160Z,100.00
2023-03-19T11:12:07.761Z,100.00
2023-03-19T11:14:37.320Z,100.00
2023-03-19T11:17:07.697Z,100.00
2023-03-19T11:19:41.598Z,100.00
2023-03-19T11:22:18.915Z,100.00
2023-03-19T11:24:54.012Z,100.00
2023-03-19T11:27:28.690Z,99.22
2023-03-19T11:29:56.896Z,98.15
2023-03-19T11:32:36.056Z,97.25
2023-03-19T11:35:08.433Z,98.07
2023-03-19T11:37:52.152Z,95.82
2023-03-19T11:40:25.165Z,93.41
2023-03-19T11:43:01.551Z,92.87
2023-03-19T11:45:34.813Z,92.20
2023-03-19T11:48:22.879Z,89.67
2023-03-19T11:50:52.337Z,88.27
2023-03-19T11:53:26.262Z,83.09
2023-03-19T11:56:01.177Z,80.36
2023-03-19T11:58:49.282Z,84.06
2023-03-19T12:01:23.094Z,84.34
2023-03-19T12:03:59.477Z,84.42
2023-03-19T12:06:37.437Z,85.58
2023-03-19T12:09:12.108Z,85.49
2023-03-19T12:11:45.357Z,87.54
2023-03-19T12:14:22.749Z,89.30
2023-03-19T12:17:04.576Z,90.07
2023-03-19T12:19:52.876Z,89.57
2023-03-19T12:22:30.894Z,90.16
2023-03-19T12:25:09.238Z,92.32
2023-03-19T12:27:41.426Z,90.78
2023-03-19T12:30:15.937Z,94.10
2023-03-19T12:32:58.133Z,94.50
2023-03-19T12:35:27.581Z,100.00
2023-03-19T12:37:59.485Z,100.00
2023-03-19T12:40:31.452Z,97.95
2023-03-19T12:43:00.924Z,94.59
2023-03-19T12:45:31.100Z,96.37
2023-03-19T12:48:01.915Z,97.20
2023-03-19T12:50:40.848Z,96.59
2023-03-19T12:53:13.014Z,95.00
2023-03-19T12:55:45.996Z,96.84
2023-03-19T12:58:19.403Z,96.88
2023-03-19T13:00:52.027Z,94.77
2023-03-19T13:03:24.858Z,96.19
2023-03-19T13:05:57.890Z,100.00
2023-03-19T13:08:30.593Z,100.00
2023-03-19T13:11:00.811Z,100.00
2023-03-19T13:13:36.692Z,100.00
2023-03-19T13:16:11.772Z,100.00
2023-03-19T13:18:43.037Z,100.00
2023-03-19T13:21:24.660Z,100.00
2023-03-19T13:24:03.361Z,97.25
2023-03-19T13:26:32.618Z,93.95
2023-03-19T13:29:02.756Z,85.32
2023-03-19T13:31:35.383Z,88.16
2023-03-19T13:34:04.624Z,86.18
2023-03-19T13:36:38.136Z,89.03
2023-03-19T13:39:13.661Z,93.91
2023-03-19T13:41:59.741Z,94.36
2023-03-19T13:44:37.160Z,94.31
2023-03-19T13:47:29.160Z,92.37
2023-03-19T13:50:05.639Z,90.13
2023-03-19T13:52:50.408Z,86.98
2023-03-19T13:55:46.307Z,83.79
2023-03-19T13:58:34.734Z,89.84
2023-03-19T14:01:02.478Z,87.33
2023-03-19T14:03:32.310Z,85.76
2023-03-19T14:06:00.786Z,88.95
2023-03-19T14:11:24.966Z,76.31
2023-03-19T14:13:54.810Z,70.60
2023-03-19T14:16:25.580Z,66.71
2023-03-19T14:18:57.156Z,59.68
2023-03-19T14:21:35.907Z,60.97
2023-03-19T14:27:19.866Z,52.71
2023-03-19T14:29:49.590Z,53.36
2023-03-19T14:32:18.930Z,51.86
2023-03-19T14:34:47.984Z,55.08
2023-03-19T14:37:21.120Z,54.73
2023-03-19T14:39:52.640Z,57.81
2023-03-19T14:42:22.712Z,67.29
2023-03-19T14:45:21.422Z,71.19
2023-03-19T14:48:06.320Z,76.21
2023-03-19T14:50:44.071Z,72.91
2023-03-19T14:53:14.852Z,77.78
2023-03-19T14:55:43.324Z,75.81
2023-03-19T14:58:11.935Z,66.74
2023-03-19T15:00:44.751Z,65.14
2023-03-19T15:03:22.391Z,64.68
2023-03-19T15:05:51.975Z,69.61
2023-03-19T15:08:23.489Z,76.16
2023-03-19T15:10:59.373Z,79.39
2023-03-19T15:13:36.618Z,78.40
2023-03-19T15:16:21.363Z,78.71
2023-03-19T15:18:49.884Z,80.26
2023-03-19T15:21:17.916Z,80.66
2023-03-19T15:23:47.497Z,85.05
2023-03-19T15:26:18.511Z,83.78
2023-03-19T15:28:49.371Z,86.06
2023-03-19T15:31:31.654Z,84.92
2023-03-19T15:34:18.587Z,86.55
2023-03-19T15:36:46.688Z,84.02
2023-03-19T15:39:17.071Z,81.75
2023-03-19T15:41:47.399Z,84.64
2023-03-19T15:44:18.806Z,83.30
2023-03-19T15:46:48.427Z,83.04
2023-03-19T15:49:18.536Z,79.34
2023-03-19T15:51:51.451Z,78.83
2023-03-19T15:54:20.091Z,73.48
2023-03-19T15:56:49.604Z,80.41
2023-03-19T15:59:18.531Z,77.76
2023-03-19T16:01:47.708Z,78.07
2023-03-19T16:04:19.768Z,80.89
2023-03-19T16:06:48.687Z,79.33
2023-03-19T16:09:23.994Z,76.40
2023-03-19T16:11:52.001Z,75.02
2023-03-19T16:14:27.556Z,74.17
2023-03-19T16:17:03.060Z,75.55
2023-03-19T16:19:34.068Z,76.84
2023-03-19T16:22:02.203Z,75.16
2023-03-19T16:24:33.693Z,76.41
2023-03-19T16:27:05.108Z,76.49
2023-03-19T16:32:39.710Z,76.55
2023-03-19T16:35:14.338Z,66.22
2023-03-19T16:37:43.552Z,67.30
2023-03-19T16:40:41.744Z,57.33
2023-03-19T16:43:17.173Z,64.82
2023-03-19T16:45:45.557Z,66.95
2023-03-19T16:48:14.699Z,66.47
2023-03-19T16:50:43.790Z,69.97
2023-03-19T16:53:20.721Z,69.58
2023-03-19T16:55:48.595Z,72.77
2023-03-19T16:58:17.857Z,75.29
2023-03-19T17:00:46.189Z,74.52
2023-03-19T17:03:16.797Z,74.31
2023-03-19T17:05:45.268Z,77.36
2023-03-19T17:08:13.560Z,75.83
2023-03-19T17:10:44.153Z,76.52
2023-03-19T17:13:17.347Z,80.50
2023-03-19T17:16:07.391Z,82.25
2023-03-19T17:18:38.203Z,79.10
2023-03-19T17:21:07.890Z,81.81
2023-03-19T17:23:35.751Z,84.82
2023-03-19T17:26:04.873Z,81.79
2023-03-19T17:28:33.077Z,80.81
2023-03-19T17:31:00.832Z,83.11
2023-03-19T17:33:29.859Z,87.30
2023-03-19T17:35:59.610Z,86.41
2023-03-19T17:38:33.038Z,88.27
2023-03-19T17:41:00.917Z,87.38
2023-03-19T17:43:28.569Z,87.57
2023-03-19T17:45:57.070Z,88.94
2023-03-19T17:48:26.565Z,89.68
2023-03-19T17:50:56.934Z,94.46
2023-03-19T17:53:46.878Z,96.42
2023-03-19T17:56:17.110Z,95.75
2023-03-19T17:58:45.041Z,95.16
2023-03-19T18:01:15.354Z,100.00
2023-03-19T18:03:43.388Z,100.00
2023-03-19T18:06:17.095Z,100.00
2023-03-19T18:08:46.356Z,99.40
2023-03-19T18:11:14.531Z,97.68
2023-03-19T18:13:42.581Z,96.22
2023-03-19T18:16:17.557Z,97.46
2023-03-19T18:18:45.371Z,98.86
2023-03-19T18:21:14.765Z,100.00
2023-03-19T18:23:42.892Z,98.29
2023-03-19T18:26:12.228Z,94.46
2023-03-19T18:28:40.199Z,96.75
2023-03-19T18:31:15.138Z,98.67
2023-03-19T18:33:45.794Z,95.77
2023-03-19T18:36:15.391Z,96.80
2023-03-19T18:38:43.085Z,95.81
2023-03-19T18:41:15.750Z,93.48
2023-03-19T18:43:43.822Z,97.51
2023-03-19T18:46:14.069Z,96.44
2023-03-19T18:48:42.043Z,97.41
2023-03-19T18:51:11.377Z,99.29
2023-03-19T18:53:39.191Z,97.58
2023-03-19T18:56:40.457Z,98.52
2023-03-19T18:59:12.730Z,98.75
2023-03-19T19:01:40.743Z,100.00
2023-03-19T19:04:08.738Z,100.00
2023-03-19T19:06:47.201Z,100.00
2023-03-19T19:09:15.939Z,100.00
2023-03-19T19:11:47.560Z,100.00
2023-03-19T19:14:20.330Z,100.00
2023-03-19T19:16:48.521Z,100.00
2023-03-19T19:19:20.219Z,100.00
2023-03-19T19:21:48.408Z,100.00
2023-03-19T19:24:17.854Z,100.00
2023-03-19T19:26:48.567Z,100.00
2023-03-19T19:29:29.606Z,100.00
2023-03-19T19:31:57.451Z,100.00
2023-03-19T19:34:25.604Z,100.00
2023-03-19T19:36:57.587Z,100.00
2023-03-19T19:39:25.360Z,100.00
2023-03-19T19:41:56.183Z,100.00
2023-03-19T19:44:23.972Z,100.00
2023-03-19T19:46:53.301Z,100.00
2023-03-19T19:49:42.074Z,100.00
2023-03-19T19:52:13.917Z,100.00
2023-03-19T19:54:41.627Z,100.00
2023-03-19T19:57:19.500Z,100.00
2023-03-19T19:59:47.341Z,100.00
2023-03-19T20:02:21.669Z,100.00
2023-03-19T20:04:49.568Z,100.00
2023-03-19T20:07:17.225Z,100.00
2023-03-19T20:09:44.936Z,100.00
2023-03-19T20:12:19.702Z,100.00
2023-03-19T20:14:47.895Z,100.00
2023-03-19T20:17:17.209Z,100.00
2023-03-19T20:19:46.454Z,100.00
2023-03-19T20:22:14.124Z,100.00
2023-03-19T20:24:42.262Z,100.00
2023-03-19T20:27:19.113Z,100.00
2023-03-19T20:29:46.842Z,100.00
2023-03-19T20:32:26.211Z,100.00
2023-03-19T20:34:54.094Z,100.00
2023-03-19T20:37:21.746Z,100.00
2023-03-19T20:39:49.396Z,100.00
2023-03-19T20:42:18.569Z,100.00
2023-03-19T20:44:47.349Z,100.00
2023-03-19T20:47:17.597Z,100.00
2023-03-19T20:49:45.691Z,100.00
2023-03-19T20:52:14.534Z,100.00
2023-03-19T20:54:42.223Z,100.00
2023-03-19T20:57:14.614Z,100.00
2023-03-19T20:59:45.933Z,100.00
2023-03-19T21:02:17.864Z,100.00
2023-03-19T21:04:45.900Z,100.00
2023-03-19T21:07:28.664Z,100.00
2023-03-19T21:09:56.928Z,100.00
2023-03-19T21:12:29.380Z,100.00
2023-03-19T21:14:58.781Z,100.00
2023-03-19T21:17:27.338Z,100.00
2023-03-19T21:19:55.029Z,100.00
2023-03-19T21:22:24.392Z,100.00
2023-03-19T21:24:53.649Z,100.00
2023-03-19T21:27:23.478Z,100.00
2023-03-19T21:29:51.880Z,100.00
2023-03-19T21:32:21.443Z,100.00
2023-03-19T21:34:52.952Z,100.00
2023-03-19T21:37:21.053Z,100.00
2023-03-19T21:39:48.782Z,100.00
2023-03-19T21:42:18.054Z,100.00
2023-03-19T21:44:46.646Z,100.00
2023-03-19T21:47:14.911Z,100.00
2023-03-19T21:49:44.242Z,100.00
2023-03-19T21:52:13.782Z,100.00
2023-03-19T21:54:41.524Z,100.00
2023-03-19T21:57:10.924Z,100.00
2023-03-19T21:59:38.689Z,100.00
2023-03-19T22:02:17.054Z,100.00
2023-03-19T22:04:46.450Z,100.00
2023-03-19T22:07:14.097Z,100.00
2023-03-19T22:09:41.742Z,100.00
2023-03-19T22:12:11.442Z,100.00
2023-03-19T22:14:40.210Z,100.00
2023-03-19T22:17:10.157Z,100.00
2023-03-19T22:19:37.944Z,100.00
2023-03-19T22:22:07.341Z,100.00
2023-03-19T22:24:34.996Z,100.00
2023-03-19T22:27:02.845Z,100.00
2023-03-19T22:29:32.342Z,100.00
2023-03-19T22:32:00.002Z,100.00
2023-03-19T22:34:28.790Z,100.00
2023-03-19T22:36:56.878Z,100.00
2023-03-19T22:39:26.057Z,100.00
2023-03-19T22:41:53.708Z,100.00
2023-03-19T22:44:26.634Z,100.00
2023-03-19T22:46:55.249Z,100.00
2023-03-19T22:49:24.715Z,100.00
2023-03-19T22:51:52.551Z,100.00
2023-03-19T22:54:20.358Z,100.00
2023-03-19T22:56:49.576Z,100.00
2023-03-19T22:59:17.318Z,100.00
2023-03-19T23:01:46.372Z,100.00
2023-03-19T23:04:19.453Z,100.00
2023-03-19T23:06:47.330Z,100.00
2023-03-19T23:09:16.851Z,100.00
2023-03-19T23:11:44.588Z,100.00
2023-03-19T23:14:27.959Z,100.00
2023-03-19T23:19:26.541Z,100.00
2023-03-19T23:21:54.640Z,100.00
2023-03-19T23:24:22.723Z,100.00
2023-03-19T23:26:54.572Z,100.00
2023-03-19T23:29:24.925Z,100.00
2023-03-19T23:31:52.571Z,100.00
2023-03-19T23:34:20.528Z,100.00
2023-03-19T23:36:48.236Z,100.00
2023-03-19T23:39:16.443Z,100.00
2023-03-19T23:41:48.248Z,100.00
2023-03-19T23:44:17.810Z,100.00
2023-03-19T23:46:49.284Z,100.00
2023-03-19T23:49:18.628Z,100.00
2023-03-19T23:51:46.705Z,100.00
2023-03-19T23:54:29.162Z,100.00
2023-03-19T23:56:58.327Z,100.00
2023-03-19T23:59:26.720Z,100.00
